Main page
METAR-TAF:

METAR-TAF

Airports :

Zeltweg, Austria

Zeltweg Air Base

latitude: 47-12N, longitude: 014-45E, elevation: 677 m

Current weather observation

The report was made 28 minutes ago, at 18:50 UTC
Wind 3 kt from the East
Temperature 1°C
Humidity 69%
Pressure 1017 hPa

METAR: LOXZ 201850Z 09003KT 30KM FEW035SC BKN060SC 01/M04 Q1017

Time: 20:18 (19:18 UTC)

Forecast

The report was made 8 hours and 3 minutes ago, at 11:15 UTC
Forecast valid from 20 at 12 UTC to 20 at 21 UTC
Wind 15 kt from the West with gusts up to 25 kt
Visibility 10 km or more
Scattered clouds at a height of 6000 ft
Broken clouds at a height of 25000 ft
Becoming
from 20 at 14 UTC to 20 at 17 UTC
Wind 8 kt from the West/Northwest
Scattered clouds at a height of 5000 ft
Broken clouds at a height of 12000 ft

TAF: LOXZ 201115Z 2012/2021 27015G25KT 9999 SCT060 BKN250 BECMG 2014/2017 30008KT SCT050 BKN120

Weather observations and forecasts of more than 4000 airports (METAR and TAF reports).

The available stations are represented by yellow and red dots on the map.

Hover mouse over dot to see the name of the station.

Then click to see weather observations and forecasts.

To change the map : click on the green buttons with a black cross to zoom in, on the green button with a dash to zoom out, or on the green arrows for adjacent maps.


METAR-TAF: